Terminal Aerodrome Forecast
Issued by NWS

Home | Current Version | Previous Version | Text Only | Print | Product List | Glossary On
Versions: 1 2 3 4 5 6 7 8 9 10 11 12 13 14 15 16 17 18 19 20 21 22 23 24 25 26 27
000
FTUS43 KLOT 241131
TAFMDW
TAF
KMDW 241131Z 2412/2512 20002KT P6SM FEW080
     FM241400 36005KT P6SM VCSH SCT050 BKN120
     FM241600 04012KT P6SM SCT060
     FM250000 03008KT P6SM SKC
     FM250600 33003KT P6SM SKC=

USA.gov is the U.S. government's official web portal to all federal, state and local government web resources and services.